sensor_id;sensor_type;location;lat;lon;timestamp;temperature;humidity
64599;SHT31;51008;51.504;11.548;2023-06-22T00:02:52;20.55;90.65
64599;SHT31;51008;51.504;11.548;2023-06-22T00:07:53;20.50;90.72
64599;SHT31;51008;51.504;11.548;2023-06-22T00:12:55;20.36;90.96
64599;SHT31;51008;51.504;11.548;2023-06-22T00:17:56;20.16;91.70
64599;SHT31;51008;51.504;11.548;2023-06-22T00:22:58;20.17;91.88
64599;SHT31;51008;51.504;11.548;2023-06-22T00:27:59;20.13;91.40
64599;SHT31;51008;51.504;11.548;2023-06-22T00:33:02;20.00;91.02
64599;SHT31;51008;51.504;11.548;2023-06-22T00:38:03;19.85;91.18
64599;SHT31;51008;51.504;11.548;2023-06-22T00:43:05;19.78;91.56
64599;SHT31;51008;51.504;11.548;2023-06-22T00:48:08;19.64;91.54
64599;SHT31;51008;51.504;11.548;2023-06-22T00:53:09;19.65;91.65
64599;SHT31;51008;51.504;11.548;2023-06-22T00:58:25;19.65;92.40
64599;SHT31;51008;51.504;11.548;2023-06-22T01:03:50;19.67;92.50
64599;SHT31;51008;51.504;11.548;2023-06-22T01:09:20;19.60;93.34
64599;SHT31;51008;51.504;11.548;2023-06-22T01:14:43;19.64;93.91
64599;SHT31;51008;51.504;11.548;2023-06-22T01:31:34;19.57;92.98
64599;SHT31;51008;51.504;11.548;2023-06-22T01:36:36;19.47;92.80
64599;SHT31;51008;51.504;11.548;2023-06-22T01:41:39;19.38;92.76
64599;SHT31;51008;51.504;11.548;2023-06-22T01:46:42;19.36;93.38
64599;SHT31;51008;51.504;11.548;2023-06-22T01:51:43;19.34;93.00
64599;SHT31;51008;51.504;11.548;2023-06-22T01:56:44;19.26;92.66
64599;SHT31;51008;51.504;11.548;2023-06-22T02:01:59;19.18;92.45
64599;SHT31;51008;51.504;11.548;2023-06-22T02:07:05;19.16;92.34
64599;SHT31;51008;51.504;11.548;2023-06-22T02:12:10;19.18;92.68
64599;SHT31;51008;51.504;11.548;2023-06-22T02:17:12;19.05;92.16
64599;SHT31;51008;51.504;11.548;2023-06-22T02:22:13;18.85;92.39
64599;SHT31;51008;51.504;11.548;2023-06-22T02:27:14;18.71;92.21
64599;SHT31;51008;51.504;11.548;2023-06-22T02:32:15;18.69;92.84
64599;SHT31;51008;51.504;11.548;2023-06-22T02:37:17;18.60;92.53
64599;SHT31;51008;51.504;11.548;2023-06-22T02:42:18;18.57;93.37
64599;SHT31;51008;51.504;11.548;2023-06-22T02:47:19;18.56;93.39
64599;SHT31;51008;51.504;11.548;2023-06-22T02:52:20;18.49;93.24
64599;SHT31;51008;51.504;11.548;2023-06-22T02:57:21;18.51;93.65
64599;SHT31;51008;51.504;11.548;2023-06-22T03:02:22;18.60;94.06
64599;SHT31;51008;51.504;11.548;2023-06-22T03:07:23;18.67;93.47
64599;SHT31;51008;51.504;11.548;2023-06-22T03:12:26;18.69;93.60
64599;SHT31;51008;51.504;11.548;2023-06-22T03:17:29;18.65;93.69
64599;SHT31;51008;51.504;11.548;2023-06-22T03:22:30;18.68;94.07
64599;SHT31;51008;51.504;11.548;2023-06-22T03:27:31;18.74;93.68
64599;SHT31;51008;51.504;11.548;2023-06-22T03:32:32;18.75;93.79
64599;SHT31;51008;51.504;11.548;2023-06-22T03:37:33;18.78;93.99
64599;SHT31;51008;51.504;11.548;2023-06-22T03:42:35;18.79;93.96
64599;SHT31;51008;51.504;11.548;2023-06-22T03:47:37;18.94;94.27
64599;SHT31;51008;51.504;11.548;2023-06-22T03:52:38;19.01;93.96
64599;SHT31;51008;51.504;11.548;2023-06-22T03:57:39;19.11;93.93
64599;SHT31;51008;51.504;11.548;2023-06-22T04:02:40;19.23;93.82
64599;SHT31;51008;51.504;11.548;2023-06-22T04:07:41;19.31;93.81
64599;SHT31;51008;51.504;11.548;2023-06-22T04:12:42;19.41;93.46
64599;SHT31;51008;51.504;11.548;2023-06-22T04:17:45;19.54;93.68
64599;SHT31;51008;51.504;11.548;2023-06-22T04:22:46;19.57;93.28
64599;SHT31;51008;51.504;11.548;2023-06-22T04:27:48;19.65;93.19
64599;SHT31;51008;51.504;11.548;2023-06-22T04:32:49;19.81;93.67
64599;SHT31;51008;51.504;11.548;2023-06-22T04:37:50;19.93;93.22
64599;SHT31;51008;51.504;11.548;2023-06-22T04:42:51;20.05;93.19
64599;SHT31;51008;51.504;11.548;2023-06-22T04:47:52;20.10;92.91
64599;SHT31;51008;51.504;11.548;2023-06-22T04:52:53;20.16;92.77
64599;SHT31;51008;51.504;11.548;2023-06-22T04:57:54;20.17;92.78
64599;SHT31;51008;51.504;11.548;2023-06-22T05:02:55;20.16;93.59
64599;SHT31;51008;51.504;11.548;2023-06-22T05:07:56;20.23;93.75
64599;SHT31;51008;51.504;11.548;2023-06-22T05:12:58;20.29;94.04
64599;SHT31;51008;51.504;11.548;2023-06-22T05:17:59;20.23;94.19
64599;SHT31;51008;51.504;11.548;2023-06-22T05:22:59;20.30;94.27
64599;SHT31;51008;51.504;11.548;2023-06-22T05:28:00;20.40;93.93
64599;SHT31;51008;51.504;11.548;2023-06-22T05:33:01;20.54;93.72
64599;SHT31;51008;51.504;11.548;2023-06-22T05:38:02;20.71;93.30
64599;SHT31;51008;51.504;11.548;2023-06-22T05:43:03;20.86;92.56
64599;SHT31;51008;51.504;11.548;2023-06-22T05:48:05;20.92;91.95
64599;SHT31;51008;51.504;11.548;2023-06-22T05:53:11;20.99;90.94
64599;SHT31;51008;51.504;11.548;2023-06-22T05:58:12;21.09;90.90
64599;SHT31;51008;51.504;11.548;2023-06-22T06:03:13;21.20;90.73
64599;SHT31;51008;51.504;11.548;2023-06-22T06:08:14;21.27;90.36
64599;SHT31;51008;51.504;11.548;2023-06-22T06:13:15;21.46;89.52
64599;SHT31;51008;51.504;11.548;2023-06-22T06:18:17;21.59;89.01
64599;SHT31;51008;51.504;11.548;2023-06-22T06:23:18;21.73;88.77
64599;SHT31;51008;51.504;11.548;2023-06-22T06:28:19;21.77;87.80
64599;SHT31;51008;51.504;11.548;2023-06-22T06:33:20;21.86;87.48
64599;SHT31;51008;51.504;11.548;2023-06-22T06:38:21;21.95;87.37
64599;SHT31;51008;51.504;11.548;2023-06-22T06:43:22;22.10;86.90
64599;SHT31;51008;51.504;11.548;2023-06-22T06:48:23;22.44;86.60
64599;SHT31;51008;51.504;11.548;2023-06-22T06:53:24;22.79;85.51
64599;SHT31;51008;51.504;11.548;2023-06-22T06:58:25;22.98;84.32
64599;SHT31;51008;51.504;11.548;2023-06-22T07:03:26;23.22;85.07
64599;SHT31;51008;51.504;11.548;2023-06-22T07:08:27;23.48;83.02
64599;SHT31;51008;51.504;11.548;2023-06-22T07:13:28;23.55;81.93
64599;SHT31;51008;51.504;11.548;2023-06-22T07:18:29;23.76;83.18
64599;SHT31;51008;51.504;11.548;2023-06-22T07:23:29;24.13;82.16
64599;SHT31;51008;51.504;11.548;2023-06-22T07:28:30;24.47;80.69
64599;SHT31;51008;51.504;11.548;2023-06-22T07:33:31;24.82;78.96
64599;SHT31;51008;51.504;11.548;2023-06-22T07:38:33;24.55;77.48
64599;SHT31;51008;51.504;11.548;2023-06-22T07:43:34;24.89;77.43
64599;SHT31;51008;51.504;11.548;2023-06-22T07:48:37;24.95;77.93
64599;SHT31;51008;51.504;11.548;2023-06-22T07:53:40;24.82;76.60
64599;SHT31;51008;51.504;11.548;2023-06-22T07:58:41;24.99;76.86
64599;SHT31;51008;51.504;11.548;2023-06-22T08:03:42;24.92;75.40
64599;SHT31;51008;51.504;11.548;2023-06-22T08:08:43;25.31;74.87
64599;SHT31;51008;51.504;11.548;2023-06-22T08:13:47;26.27;73.74
64599;SHT31;51008;51.504;11.548;2023-06-22T08:18:51;27.20;71.39
64599;SHT31;51008;51.504;11.548;2023-06-22T08:23:52;27.72;67.84
64599;SHT31;51008;51.504;11.548;2023-06-22T08:28:53;26.68;68.56
64599;SHT31;51008;51.504;11.548;2023-06-22T08:33:54;26.58;70.21
64599;SHT31;51008;51.504;11.548;2023-06-22T08:38:55;26.91;69.40
64599;SHT31;51008;51.504;11.548;2023-06-22T08:43:55;27.00;67.42
64599;SHT31;51008;51.504;11.548;2023-06-22T08:48:59;26.96;67.94
64599;SHT31;51008;51.504;11.548;2023-06-22T08:54:00;27.62;69.05
64599;SHT31;51008;51.504;11.548;2023-06-22T08:59:01;28.34;64.38
64599;SHT31;51008;51.504;11.548;2023-06-22T09:04:02;29.04;64.17
64599;SHT31;51008;51.504;11.548;2023-06-22T09:09:03;28.95;64.16
64599;SHT31;51008;51.504;11.548;2023-06-22T09:14:04;28.86;64.36
64599;SHT31;51008;51.504;11.548;2023-06-22T09:19:05;29.09;63.74
64599;SHT31;51008;51.504;11.548;2023-06-22T09:24:06;29.55;62.39
64599;SHT31;51008;51.504;11.548;2023-06-22T09:29:07;29.10;61.36
64599;SHT31;51008;51.504;11.548;2023-06-22T09:34:08;30.02;61.55
64599;SHT31;51008;51.504;11.548;2023-06-22T09:39:09;30.31;58.64
64599;SHT31;51008;51.504;11.548;2023-06-22T09:44:10;30.44;56.78
64599;SHT31;51008;51.504;11.548;2023-06-22T09:49:11;29.92;60.02
64599;SHT31;51008;51.504;11.548;2023-06-22T09:54:12;29.82;57.40
64599;SHT31;51008;51.504;11.548;2023-06-22T09:59:13;29.72;57.78
64599;SHT31;51008;51.504;11.548;2023-06-22T10:04:14;29.95;57.69
64599;SHT31;51008;51.504;11.548;2023-06-22T10:09:15;30.06;57.02
64599;SHT31;51008;51.504;11.548;2023-06-22T10:14:16;30.02;56.26
64599;SHT31;51008;51.504;11.548;2023-06-22T10:19:17;30.28;54.59
64599;SHT31;51008;51.504;11.548;2023-06-22T10:24:18;30.54;54.98
64599;SHT31;51008;51.504;11.548;2023-06-22T10:29:20;30.07;55.83
64599;SHT31;51008;51.504;11.548;2023-06-22T10:34:21;30.21;55.67
64599;SHT31;51008;51.504;11.548;2023-06-22T10:39:22;30.67;54.13
64599;SHT31;51008;51.504;11.548;2023-06-22T10:44:23;30.99;54.36
64599;SHT31;51008;51.504;11.548;2023-06-22T10:49:24;30.40;54.80
64599;SHT31;51008;51.504;11.548;2023-06-22T10:54:25;30.79;52.74
64599;SHT31;51008;51.504;11.548;2023-06-22T10:59:26;30.92;52.62
64599;SHT31;51008;51.504;11.548;2023-06-22T11:04:27;30.74;51.87
64599;SHT31;51008;51.504;11.548;2023-06-22T11:09:28;30.90;53.25
64599;SHT31;51008;51.504;11.548;2023-06-22T11:14:29;31.37;51.21
64599;SHT31;51008;51.504;11.548;2023-06-22T11:19:30;31.48;50.59
64599;SHT31;51008;51.504;11.548;2023-06-22T11:24:31;31.34;50.55
64599;SHT31;51008;51.504;11.548;2023-06-22T11:29:32;31.12;51.29
64599;SHT31;51008;51.504;11.548;2023-06-22T11:34:33;31.34;50.30
64599;SHT31;51008;51.504;11.548;2023-06-22T11:39:34;31.62;50.65
64599;SHT31;51008;51.504;11.548;2023-06-22T11:44:35;31.45;52.74
64599;SHT31;51008;51.504;11.548;2023-06-22T11:49:36;31.79;49.07
64599;SHT31;51008;51.504;11.548;2023-06-22T11:54:37;32.17;49.84
64599;SHT31;51008;51.504;11.548;2023-06-22T11:59:38;31.42;47.40
64599;SHT31;51008;51.504;11.548;2023-06-22T12:04:39;31.64;49.46
64599;SHT31;51008;51.504;11.548;2023-06-22T12:09:40;31.66;48.56
64599;SHT31;51008;51.504;11.548;2023-06-22T12:14:41;31.73;48.29
64599;SHT31;51008;51.504;11.548;2023-06-22T12:19:42;32.10;49.01
64599;SHT31;51008;51.504;11.548;2023-06-22T12:24:43;32.37;47.33
64599;SHT31;51008;51.504;11.548;2023-06-22T12:29:46;31.92;47.61
64599;SHT31;51008;51.504;11.548;2023-06-22T12:34:47;31.85;48.29
64599;SHT31;51008;51.504;11.548;2023-06-22T12:39:48;31.57;46.60
64599;SHT31;51008;51.504;11.548;2023-06-22T12:44:49;32.00;48.11
64599;SHT31;51008;51.504;11.548;2023-06-22T12:49:50;31.75;49.56
64599;SHT31;51008;51.504;11.548;2023-06-22T12:54:54;31.78;49.75
64599;SHT31;51008;51.504;11.548;2023-06-22T12:59:55;32.24;47.34
64599;SHT31;51008;51.504;11.548;2023-06-22T13:04:56;31.96;47.96
64599;SHT31;51008;51.504;11.548;2023-06-22T13:09:57;32.34;47.62
64599;SHT31;51008;51.504;11.548;2023-06-22T13:14:58;32.19;49.30
64599;SHT31;51008;51.504;11.548;2023-06-22T13:19:59;32.23;48.85
64599;SHT31;51008;51.504;11.548;2023-06-22T13:25:00;32.30;48.04
64599;SHT31;51008;51.504;11.548;2023-06-22T13:30:01;32.24;49.34
64599;SHT31;51008;51.504;11.548;2023-06-22T13:35:03;32.47;49.62
64599;SHT31;51008;51.504;11.548;2023-06-22T13:40:07;32.38;47.89
64599;SHT31;51008;51.504;11.548;2023-06-22T13:45:09;32.41;47.81
64599;SHT31;51008;51.504;11.548;2023-06-22T13:50:10;31.83;47.57
64599;SHT31;51008;51.504;11.548;2023-06-22T13:55:11;31.21;50.02
64599;SHT31;51008;51.504;11.548;2023-06-22T14:00:12;31.16;50.38
64599;SHT31;51008;51.504;11.548;2023-06-22T14:05:13;30.85;51.65
64599;SHT31;51008;51.504;11.548;2023-06-22T14:10:14;30.59;51.87
64599;SHT31;51008;51.504;11.548;2023-06-22T14:15:15;30.76;52.02
64599;SHT31;51008;51.504;11.548;2023-06-22T14:20:16;30.49;54.31
64599;SHT31;51008;51.504;11.548;2023-06-22T14:25:17;30.51;53.68
64599;SHT31;51008;51.504;11.548;2023-06-22T14:30:18;30.34;54.56
64599;SHT31;51008;51.504;11.548;2023-06-22T14:35:19;30.45;52.19
64599;SHT31;51008;51.504;11.548;2023-06-22T14:40:20;30.25;53.05
64599;SHT31;51008;51.504;11.548;2023-06-22T14:45:21;30.47;52.16
64599;SHT31;51008;51.504;11.548;2023-06-22T14:50:22;30.86;52.03
64599;SHT31;51008;51.504;11.548;2023-06-22T14:55:22;30.99;50.90
64599;SHT31;51008;51.504;11.548;2023-06-22T15:00:26;30.86;51.73
64599;SHT31;51008;51.504;11.548;2023-06-22T15:05:27;30.93;51.40
64599;SHT31;51008;51.504;11.548;2023-06-22T15:10:28;30.71;51.60
64599;SHT31;51008;51.504;11.548;2023-06-22T15:15:29;30.48;51.56
64599;SHT31;51008;51.504;11.548;2023-06-22T15:20:30;30.24;52.07
64599;SHT31;51008;51.504;11.548;2023-06-22T15:25:31;30.21;53.30
64599;SHT31;51008;51.504;11.548;2023-06-22T15:30:32;30.17;53.52
64599;SHT31;51008;51.504;11.548;2023-06-22T15:35:33;30.47;54.00
64599;SHT31;51008;51.504;11.548;2023-06-22T15:40:34;30.35;53.24
64599;SHT31;51008;51.504;11.548;2023-06-22T15:45:35;30.25;54.56
64599;SHT31;51008;51.504;11.548;2023-06-22T15:50:36;30.13;54.79
64599;SHT31;51008;51.504;11.548;2023-06-22T15:55:40;29.99;55.42
64599;SHT31;51008;51.504;11.548;2023-06-22T16:00:44;29.92;56.08
64599;SHT31;51008;51.504;11.548;2023-06-22T16:05:45;29.75;56.51
64599;SHT31;51008;51.504;11.548;2023-06-22T16:10:45;29.71;56.94
64599;SHT31;51008;51.504;11.548;2023-06-22T16:15:46;29.58;56.97
64599;SHT31;51008;51.504;11.548;2023-06-22T16:20:47;29.30;57.03
64599;SHT31;51008;51.504;11.548;2023-06-22T16:25:48;29.30;57.89
64599;SHT31;51008;51.504;11.548;2023-06-22T16:30:52;29.23;56.99
64599;SHT31;51008;51.504;11.548;2023-06-22T16:35:53;29.13;57.65
64599;SHT31;51008;51.504;11.548;2023-06-22T16:40:54;29.02;57.47
64599;SHT31;51008;51.504;11.548;2023-06-22T16:45:55;28.92;58.33
64599;SHT31;51008;51.504;11.548;2023-06-22T16:50:56;28.89;58.71
64599;SHT31;51008;51.504;11.548;2023-06-22T16:55:58;28.66;59.08
64599;SHT31;51008;51.504;11.548;2023-06-22T17:00:59;28.57;59.69
64599;SHT31;51008;51.504;11.548;2023-06-22T17:06:03;28.51;60.28
64599;SHT31;51008;51.504;11.548;2023-06-22T17:11:05;28.48;61.01
64599;SHT31;51008;51.504;11.548;2023-06-22T17:16:09;28.25;61.46
64599;SHT31;51008;51.504;11.548;2023-06-22T17:21:20;28.05;61.09
64599;SHT31;51008;51.504;11.548;2023-06-22T17:26:22;27.99;60.93
64599;SHT31;51008;51.504;11.548;2023-06-22T17:31:23;27.89;61.24
64599;SHT31;51008;51.504;11.548;2023-06-22T17:36:27;27.79;61.35
64599;SHT31;51008;51.504;11.548;2023-06-22T17:41:32;27.65;61.83
64599;SHT31;51008;51.504;11.548;2023-06-22T17:46:37;27.58;62.30
64599;SHT31;51008;51.504;11.548;2023-06-22T17:51:39;27.55;62.27
64599;SHT31;51008;51.504;11.548;2023-06-22T17:56:40;27.55;62.40
64599;SHT31;51008;51.504;11.548;2023-06-22T18:01:41;27.59;62.93
64599;SHT31;51008;51.504;11.548;2023-06-22T18:06:44;27.50;63.02
64599;SHT31;51008;51.504;11.548;2023-06-22T18:11:47;27.44;64.08
64599;SHT31;51008;51.504;11.548;2023-06-22T18:16:50;27.27;64.34
64599;SHT31;51008;51.504;11.548;2023-06-22T18:21:51;26.96;65.14
64599;SHT31;51008;51.504;11.548;2023-06-22T18:26:52;25.93;65.99
64599;SHT31;51008;51.504;11.548;2023-06-22T18:31:54;24.89;69.03
64599;SHT31;51008;51.504;11.548;2023-06-22T18:36:57;24.78;69.65
64599;SHT31;51008;51.504;11.548;2023-06-22T18:41:59;24.90;69.67
64599;SHT31;51008;51.504;11.548;2023-06-22T18:47:04;24.82;70.07
64599;SHT31;51008;51.504;11.548;2023-06-22T19:12:51;22.10;85.50
64599;SHT31;51008;51.504;11.548;2023-06-22T19:17:52;21.89;86.56
64599;SHT31;51008;51.504;11.548;2023-06-22T19:22:56;21.20;88.96
64599;SHT31;51008;51.504;11.548;2023-06-22T19:27:57;20.79;91.25
64599;SHT31;51008;51.504;11.548;2023-06-22T19:32:59;20.64;91.21
64599;SHT31;51008;51.504;11.548;2023-06-22T19:38:00;20.41;91.68
64599;SHT31;51008;51.504;11.548;2023-06-22T19:43:01;20.13;92.54
64599;SHT31;51008;51.504;11.548;2023-06-22T19:48:02;19.93;94.18
64599;SHT31;51008;51.504;11.548;2023-06-22T19:53:06;19.67;96.04
64599;SHT31;51008;51.504;11.548;2023-06-22T19:58:09;18.96;96.73
64599;SHT31;51008;51.504;11.548;2023-06-22T20:03:16;18.63;97.13
64599;SHT31;51008;51.504;11.548;2023-06-22T20:08:20;18.72;96.99
64599;SHT31;51008;51.504;11.548;2023-06-22T20:13:22;19.03;97.04
64599;SHT31;51008;51.504;11.548;2023-06-22T20:18:26;18.99;96.77
64599;SHT31;51008;51.504;11.548;2023-06-22T20:23:28;19.01;96.58
64599;SHT31;51008;51.504;11.548;2023-06-22T20:28:59;18.99;97.14
64599;SHT31;51008;51.504;11.548;2023-06-22T20:34:04;18.84;97.41
64599;SHT31;51008;51.504;11.548;2023-06-22T20:39:05;18.77;98.29
64599;SHT31;51008;51.504;11.548;2023-06-22T20:44:06;18.67;98.41
64599;SHT31;51008;51.504;11.548;2023-06-22T20:49:07;18.77;98.34
64599;SHT31;51008;51.504;11.548;2023-06-22T20:54:08;18.83;98.19
64599;SHT31;51008;51.504;11.548;2023-06-22T20:59:13;18.91;97.67
64599;SHT31;51008;51.504;11.548;2023-06-22T21:04:14;18.85;97.21
64599;SHT31;51008;51.504;11.548;2023-06-22T21:09:16;18.89;97.21
64599;SHT31;51008;51.504;11.548;2023-06-22T21:14:17;18.72;97.26
64599;SHT31;51008;51.504;11.548;2023-06-22T21:19:18;18.77;97.66
64599;SHT31;51008;51.504;11.548;2023-06-22T21:24:19;18.61;97.85
64599;SHT31;51008;51.504;11.548;2023-06-22T21:29:20;18.60;97.94
64599;SHT31;51008;51.504;11.548;2023-06-22T21:34:22;18.64;97.94
64599;SHT31;51008;51.504;11.548;2023-06-22T21:39:23;18.74;97.64
64599;SHT31;51008;51.504;11.548;2023-06-22T21:44:24;18.77;97.50
64599;SHT31;51008;51.504;11.548;2023-06-22T21:49:25;18.71;97.29
64599;SHT31;51008;51.504;11.548;2023-06-22T21:54:26;18.84;97.21
64599;SHT31;51008;51.504;11.548;2023-06-22T21:59:26;18.72;97.48
64599;SHT31;51008;51.504;11.548;2023-06-22T22:04:28;18.74;97.30
64599;SHT31;51008;51.504;11.548;2023-06-22T22:09:29;18.72;97.10
64599;SHT31;51008;51.504;11.548;2023-06-22T22:14:30;18.39;99.02
64599;SHT31;51008;51.504;11.548;2023-06-22T22:19:31;18.32;99.33
64599;SHT31;51008;51.504;11.548;2023-06-22T22:24:32;18.50;99.08
64599;SHT31;51008;51.504;11.548;2023-06-22T22:29:33;18.61;98.64
64599;SHT31;51008;51.504;11.548;2023-06-22T22:34:34;18.67;97.72
64599;SHT31;51008;51.504;11.548;2023-06-22T22:39:36;18.65;97.72
64599;SHT31;51008;51.504;11.548;2023-06-22T22:44:37;18.68;98.16
64599;SHT31;51008;51.504;11.548;2023-06-22T22:49:38;18.79;98.14
64599;SHT31;51008;51.504;11.548;2023-06-22T22:54:39;18.81;98.06
64599;SHT31;51008;51.504;11.548;2023-06-22T22:59:40;18.71;97.82
64599;SHT31;51008;51.504;11.548;2023-06-22T23:04:41;18.57;98.14
64599;SHT31;51008;51.504;11.548;2023-06-22T23:09:42;18.33;99.31
64599;SHT31;51008;51.504;11.548;2023-06-22T23:14:46;18.41;99.06
64599;SHT31;51008;51.504;11.548;2023-06-22T23:19:47;18.54;98.98
64599;SHT31;51008;51.504;11.548;2023-06-22T23:24:48;18.60;98.83
64599;SHT31;51008;51.504;11.548;2023-06-22T23:29:49;18.56;98.74
64599;SHT31;51008;51.504;11.548;2023-06-22T23:34:50;18.51;99.03
64599;SHT31;51008;51.504;11.548;2023-06-22T23:39:51;18.54;98.84
64599;SHT31;51008;51.504;11.548;2023-06-22T23:44:52;18.58;98.85
64599;SHT31;51008;51.504;11.548;2023-06-22T23:49:53;18.58;98.41
64599;SHT31;51008;51.504;11.548;2023-06-22T23:54:53;18.63;98.27
64599;SHT31;51008;51.504;11.548;2023-06-22T23:59:54;18.63;98.58
